Chestnut Mound, Tennessee
Current Conditions -  °F | °C
As of 2:15 AM on Tuesday 27 Jan 2015 (Local Time) from KSRB Reporting Station
Broken Clouds Broken Clouds  
Wind Chill: 30°   Ceiling: 2300
Heat Index: 30°   Visibility: 9mi
Dew Point: 30°   Wind: 3mph
Humidity: 100%   Direction: 180°S
Pressure: 29.87"   Gusts: NA
Location:  36.2°N, 85.83°W
Report Text: KSRB 270815Z AUTO 18003KT 9SM BKN023 M01/M01 A2987 RMK
Loading
Personal Weather Stations






























Interactive Weather Map New forecast layout! Learn more

10-Day Weather Forecast

Advertisements
Track Severe Weather on mobile